Jump to content


AMERICAN AIRLINES FLIGHT AA1460 FLOWN ON 09-10-2017 BY CAPTAIN JIM BOERMAN

Pilot StatsCaptain Jim Boerman (LDP136) • 4,648.3 total hours • 1,417 total flights [View Logbook]
FLIGHT DETAILS
StatusReceived and approved on 2017-09-10 at 10:09:17
Origin AirportAustin Bergstrom Intl (KAUS) • Austin, Texas, United States (542 feet MSL)
Filed Flight PlanKAUS CWK J21 FUZ KDFW
Destination AirportDallas-Ft Worth Intl (KDFW) • Dallas-Ft Worth, Texas, United States (607 feet MSL)
Alternate AirportWaco Regl (KACT) • Waco, Texas, United States (516 feet MSL)
AirlineAmerican Airlines
AircraftAirbus A320 (320 / A320)
FS Aircraft UsedFeelthere A320 CFM American Airlines
Cruising AltitudeFL330
Distance Flown165 nautical miles
Passengers Onboard145 passengers (96.67% full)
DEPARTURE DETAILS
Time Out08:40:06
Taxi Data147,008 lbs total with 12,581 lbs of fuel onboard
Takeoff Data08:51:50 (12 minutes after leaving gate/ramp) • 146,088 lbs total • 7° pitch at 160 knots
Departure METARKAUS 101253Z 34005KT 10SM FEW200 18/15 A3014 RMK AO2 SLP200 T01780150 $
ARRIVAL DETAILS
Landing Data09:32:22 • 141,721 lbs total • 5° pitch doing 135 knots at a rate of -304.50 feet/minute with 6,658 lbs of fuel onboard
Time In09:41:48 (9 minutes after landing)
Ramp Weight141,084 lbs total
Total Fuel Used5,923 lbs
Total Block Time00:59:57 (1 hour) while 21 minutes were spent on the ground
Arrival METARKDFW 101353Z 05006KT 10SM CLR 21/16 A3019 RMK AO2 SLP217 T02110156
MISCELLANEOUS DETAILS
LiveDISPATCH Version4.8.3.1
FS Version
FSUIPC Version4.93
OS VersionWindows 7 32-bit
Screen Resolution1920 x 1080
Pilot's CommentsNo Comments Reported
FLIGHT MAP